Time;durP1;ratioP1;P1;durP2;ratioP2;P2;SDS_P1;SDS_P2;PMS_P1;PMS_P2;Temp;Humidity;BMP_temperature;BMP_pressure;BME280_temperature;BME280_humidity;BME280_pressure;Samples;Min_cycle;Max_cycle;Signal;HPM_P1;HPM_P2
2021/08/21 00:00:24;;;;;;;16.27;10.13;;;;;;;;;;5108803;28;20050;-83
2021/08/21 00:02:51;;;;;;;13.25;9.15;;;;;;;;;;5113303;28;20083;-84
2021/08/21 00:05:18;;;;;;;13.02;9.35;;;;;;;;;;5107777;28;20063;-85
2021/08/21 00:07:47;;;;;;;13.60;9.40;;;;;;;;;;5100311;28;20055;-85
2021/08/21 00:10:15;;;;;;;15.57;10.15;;;;;;;;;;5098428;28;20436;-85
2021/08/21 00:12:42;;;;;;;12.32;8.85;;;;;;;;;;5098519;28;20082;-85
2021/08/21 00:15:10;;;;;;;12.35;8.20;;;;;;;;;;5097439;28;20373;-84
2021/08/21 00:17:37;;;;;;;15.55;9.32;;;;;;;;;;5095103;28;20119;-84
2021/08/21 00:20:05;;;;;;;13.82;9.27;;;;;;;;;;5096301;28;20078;-85
2021/08/21 00:22:31;;;;;;;13.57;9.23;;;;;;;;;;5133052;27;20068;-83
2021/08/21 00:24:58;;;;;;;13.68;8.90;;;;;;;;;;5101018;28;20447;-84
2021/08/21 00:27:26;;;;;;;12.73;8.55;;;;;;;;;;5100684;28;20381;-84
2021/08/21 00:29:55;;;;;;;15.40;10.20;;;;;;;;;;5099335;28;20110;-84
2021/08/21 00:32:22;;;;;;;15.45;10.48;;;;;;;;;;5100527;28;20040;-84
2021/08/21 00:34:48;;;;;;;14.68;9.93;;;;;;;;;;5099877;28;20052;-84
2021/08/21 00:37:15;;;;;;;18.38;9.43;;;;;;;;;;5099009;28;20383;-84
2021/08/21 00:39:42;;;;;;;13.57;10.23;;;;;;;;;;5114754;28;20032;-84
2021/08/21 00:42:11;;;;;;;16.15;10.10;;;;;;;;;;5114548;28;20062;-83
2021/08/21 00:44:39;;;;;;;16.55;11.10;;;;;;;;;;5100313;28;20059;-83
2021/08/21 00:47:13;;;;;;;14.77;10.75;;;;;;;;;;5098280;28;20052;-84
2021/08/21 00:49:50;;;;;;;16.08;11.30;;;;;;;;;;5107424;28;20048;-84
2021/08/21 00:52:18;;;;;;;20.45;11.70;;;;;;;;;;5113914;28;20101;-83
2021/08/21 00:54:45;;;;;;;13.60;9.82;;;;;;;;;;5105135;28;20336;-84
2021/08/21 00:57:12;;;;;;;14.50;10.38;;;;;;;;;;5099509;28;20058;-84
2021/08/21 00:59:40;;;;;;;15.63;10.07;;;;;;;;;;5098896;28;20382;-83
2021/08/21 01:02:07;;;;;;;14.80;10.32;;;;;;;;;;5098035;28;20044;-83
2021/08/21 01:04:44;;;;;;;15.07;10.15;;;;;;;;;;5098878;28;20055;-84
2021/08/21 01:07:12;;;;;;;14.18;9.73;;;;;;;;;;5099420;28;20043;-85
2021/08/21 01:09:40;;;;;;;14.98;9.88;;;;;;;;;;5098364;28;20048;-85
2021/08/21 01:12:09;;;;;;;15.07;9.85;;;;;;;;;;5098786;28;20416;-85
2021/08/21 01:14:36;;;;;;;13.25;9.40;;;;;;;;;;5097108;28;20047;-84
2021/08/21 01:17:03;;;;;;;13.80;9.02;;;;;;;;;;5099429;28;20058;-84
2021/08/21 01:19:31;;;;;;;15.10;9.77;;;;;;;;;;5108074;28;20063;-85
2021/08/21 01:21:57;;;;;;;14.73;10.90;;;;;;;;;;5114861;28;20076;-84
2021/08/21 01:24:24;;;;;;;14.82;10.75;;;;;;;;;;5106357;28;20320;-85
2021/08/21 01:26:54;;;;;;;16.33;10.50;;;;;;;;;;5096725;28;20432;-85
2021/08/21 01:29:20;;;;;;;15.93;10.98;;;;;;;;;;5096667;28;20040;-84
2021/08/21 01:31:48;;;;;;;16.95;11.82;;;;;;;;;;5097287;28;20063;-85
2021/08/21 01:34:14;;;;;;;22.15;12.73;;;;;;;;;;5113131;28;20047;-84
2021/08/21 01:36:45;;;;;;;22.35;13.27;;;;;;;;;;5114735;28;20078;-84
2021/08/21 01:39:12;;;;;;;22.38;15.50;;;;;;;;;;5107983;28;20044;-85
2021/08/21 01:41:41;;;;;;;18.95;13.65;;;;;;;;;;5099382;28;20074;-85
2021/08/21 01:44:09;;;;;;;22.17;13.48;;;;;;;;;;5097768;28;20067;-85
2021/08/21 01:46:38;;;;;;;20.88;13.40;;;;;;;;;;5097715;28;20056;-85
2021/08/21 01:49:09;;;;;;;18.80;12.65;;;;;;;;;;5096427;28;20055;-84
2021/08/21 01:51:38;;;;;;;20.17;12.35;;;;;;;;;;5096563;28;20234;-84
2021/08/21 01:54:09;;;;;;;24.23;12.77;;;;;;;;;;5097847;28;20055;-85
2021/08/21 01:56:46;;;;;;;23.77;13.93;;;;;;;;;;5098311;28;20063;-85
2021/08/21 01:59:22;;;;;;;21.25;12.90;;;;;;;;;;5098387;28;20240;-85
2021/08/21 02:01:49;;;;;;;23.10;14.00;;;;;;;;;;5097330;28;20467;-85
2021/08/21 02:04:16;;;;;;;18.25;12.93;;;;;;;;;;5097446;28;20641;-85
2021/08/21 02:06:43;;;;;;;23.92;13.23;;;;;;;;;;5107426;28;20078;-85
2021/08/21 02:09:10;;;;;;;20.67;13.43;;;;;;;;;;5115563;28;20074;-84
2021/08/21 02:11:37;;;;;;;20.95;12.93;;;;;;;;;;5108563;28;20130;-85
2021/08/21 02:14:03;;;;;;;22.67;13.40;;;;;;;;;;5099191;28;20047;-84
2021/08/21 02:16:30;;;;;;;20.55;12.07;;;;;;;;;;5104222;28;20047;-85
2021/08/21 02:18:57;;;;;;;20.20;12.75;;;;;;;;;;5103793;28;20056;-84
2021/08/21 02:21:24;;;;;;;21.38;14.43;;;;;;;;;;5109735;28;20095;-85
2021/08/21 02:23:52;;;;;;;20.42;13.07;;;;;;;;;;5114905;28;20248;-84
2021/08/21 02:26:22;;;;;;;21.45;13.20;;;;;;;;;;5112567;28;20052;-83
2021/08/21 02:28:52;;;;;;;23.42;14.45;;;;;;;;;;5107563;28;20052;-84
2021/08/21 02:31:19;;;;;;;20.90;13.75;;;;;;;;;;5114439;28;20058;-84
2021/08/21 02:33:46;;;;;;;28.00;14.52;;;;;;;;;;5100761;28;20135;-84
2021/08/21 02:36:13;;;;;;;21.35;13.40;;;;;;;;;;5099148;28;20052;-84
2021/08/21 02:38:40;;;;;;;21.90;14.05;;;;;;;;;;5096929;28;20048;-84
2021/08/21 02:41:08;;;;;;;21.25;12.55;;;;;;;;;;5098163;28;20044;-85
2021/08/21 02:43:38;;;;;;;19.92;11.98;;;;;;;;;;5098397;28;20048;-85
2021/08/21 02:46:04;;;;;;;21.33;13.27;;;;;;;;;;5099038;28;20047;-85
2021/08/21 02:48:37;;;;;;;17.33;11.75;;;;;;;;;;5099532;28;20055;-86
2021/08/21 02:51:04;;;;;;;21.38;13.10;;;;;;;;;;5099284;28;20056;-85
2021/08/21 02:53:30;;;;;;;19.45;12.27;;;;;;;;;;5097642;28;20040;-85
2021/08/21 02:56:00;;;;;;;18.88;12.70;;;;;;;;;;5098993;28;20052;-85
2021/08/21 02:58:30;;;;;;;23.95;11.80;;;;;;;;;;5100593;28;20059;-85
2021/08/21 03:00:57;;;;;;;20.70;12.27;;;;;;;;;;5097726;28;20070;-85
2021/08/21 03:03:24;;;;;;;20.20;12.25;;;;;;;;;;5098535;28;20235;-86
2021/08/21 03:05:50;;;;;;;19.33;12.40;;;;;;;;;;5112791;28;20040;-85
2021/08/21 03:08:17;;;;;;;16.85;11.25;;;;;;;;;;5114453;28;20082;-84
2021/08/21 03:10:47;;;;;;;19.17;11.65;;;;;;;;;;5113829;28;20104;-85
2021/08/21 03:13:13;;;;;;;19.20;12.13;;;;;;;;;;5106568;28;20048;-85
2021/08/21 03:15:40;;;;;;;18.63;11.68;;;;;;;;;;5101664;28;20108;-86
2021/08/21 03:18:07;;;;;;;17.98;11.82;;;;;;;;;;5099150;28;20538;-85
2021/08/21 03:20:36;;;;;;;19.42;10.98;;;;;;;;;;5100548;28;20048;-86
2021/08/21 03:23:03;;;;;;;20.15;12.18;;;;;;;;;;5099190;28;20151;-86
2021/08/21 03:25:30;;;;;;;16.58;11.25;;;;;;;;;;5099990;28;20051;-86
2021/08/21 03:27:56;;;;;;;15.77;11.27;;;;;;;;;;5098367;28;20116;-85
2021/08/21 03:30:29;;;;;;;16.42;10.43;;;;;;;;;;5097719;28;20040;-85
2021/08/21 03:32:56;;;;;;;15.13;9.75;;;;;;;;;;5097362;28;20322;-86
2021/08/21 03:35:22;;;;;;;14.00;9.82;;;;;;;;;;5098717;28;20072;-83
2021/08/21 03:37:49;;;;;;;14.57;9.90;;;;;;;;;;5100233;28;20505;-84
2021/08/21 03:40:18;;;;;;;13.38;9.20;;;;;;;;;;5099910;28;20059;-84
2021/08/21 03:42:48;;;;;;;13.10;9.43;;;;;;;;;;5100412;28;20086;-85
2021/08/21 03:45:15;;;;;;;13.52;8.00;;;;;;;;;;5101198;28;20121;-85
2021/08/21 03:47:42;;;;;;;12.07;8.65;;;;;;;;;;5101100;28;20044;-85
2021/08/21 03:50:10;;;;;;;15.77;8.48;;;;;;;;;;5134446;28;20056;-85
2021/08/21 03:52:36;;;;;;;10.55;7.25;;;;;;;;;;5099934;28;20075;-85
2021/08/21 03:55:03;;;;;;;12.02;7.45;;;;;;;;;;5132404;27;20055;-85
2021/08/21 03:57:30;;;;;;;12.32;7.35;;;;;;;;;;5102086;28;20056;-85
2021/08/21 03:59:56;;;;;;;10.48;6.93;;;;;;;;;;5149185;27;20043;-85
2021/08/21 04:02:23;;;;;;;13.93;7.82;;;;;;;;;;5117152;28;20063;-85
2021/08/21 04:04:50;;;;;;;14.88;8.20;;;;;;;;;;5115165;28;20083;-84
2021/08/21 04:07:17;;;;;;;12.35;8.07;;;;;;;;;;5139635;27;20055;-85
2021/08/21 04:09:43;;;;;;;15.02;8.43;;;;;;;;;;5104850;28;20079;-85
2021/08/21 04:12:16;;;;;;;12.85;8.60;;;;;;;;;;5105169;28;20094;-85
2021/08/21 04:14:42;;;;;;;15.02;8.77;;;;;;;;;;5103919;28;20048;-85
2021/08/21 04:17:09;;;;;;;15.05;9.15;;;;;;;;;;5104189;28;20048;-85
2021/08/21 04:19:39;;;;;;;12.77;8.35;;;;;;;;;;5137109;27;20052;-85
2021/08/21 04:22:05;;;;;;;11.90;8.82;;;;;;;;;;5104306;28;20120;-84
2021/08/21 04:24:32;;;;;;;13.95;8.50;;;;;;;;;;5106088;28;20115;-84
2021/08/21 04:26:59;;;;;;;12.35;9.10;;;;;;;;;;5117565;28;20060;-84
2021/08/21 04:29:32;;;;;;;12.48;8.18;;;;;;;;;;5118415;28;20055;-84
2021/08/21 04:31:58;;;;;;;15.70;9.45;;;;;;;;;;5150542;27;20054;-84
2021/08/21 04:34:25;;;;;;;16.20;9.23;;;;;;;;;;5118608;28;20082;-84
2021/08/21 04:36:51;;;;;;;18.63;8.90;;;;;;;;;;5116187;28;20069;-85
2021/08/21 04:39:18;;;;;;;15.02;9.93;;;;;;;;;;5103748;28;20432;-84
2021/08/21 04:41:45;;;;;;;17.55;10.18;;;;;;;;;;5104024;28;20400;-84
2021/08/21 04:44:11;;;;;;;13.13;8.50;;;;;;;;;;5103941;28;20366;-84
2021/08/21 04:46:38;;;;;;;14.90;8.80;;;;;;;;;;5102041;28;20163;-84
2021/08/21 04:49:04;;;;;;;13.75;8.88;;;;;;;;;;5102993;28;20070;-85
2021/08/21 04:51:31;;;;;;;11.95;8.32;;;;;;;;;;5104037;28;20106;-84
2021/08/21 04:53:58;;;;;;;12.15;8.05;;;;;;;;;;5136317;27;20044;-85
2021/08/21 04:56:24;;;;;;;16.80;7.82;;;;;;;;;;5136806;27;20083;-84
2021/08/21 04:58:51;;;;;;;13.20;7.10;;;;;;;;;;5103385;28;20432;-84
2021/08/21 05:01:17;;;;;;;12.93;7.13;;;;;;;;;;5102025;28;20207;-84
2021/08/21 05:03:44;;;;;;;10.10;6.47;;;;;;;;;;5102205;28;20447;-84
2021/08/21 05:06:11;;;;;;;10.10;7.15;;;;;;;;;;5101036;28;20101;-85
2021/08/21 05:08:41;;;;;;;14.77;7.43;;;;;;;;;;5100201;28;20048;-84
2021/08/21 05:11:08;;;;;;;9.70;6.47;;;;;;;;;;5106894;28;20040;-85
2021/08/21 05:13:38;;;;;;;10.00;6.70;;;;;;;;;;5114965;28;20047;-85
2021/08/21 05:16:04;;;;;;;13.48;7.45;;;;;;;;;;5100487;28;20405;-85
2021/08/21 05:18:35;;;;;;;10.40;6.47;;;;;;;;;;5101163;28;20122;-86
2021/08/21 05:21:06;;;;;;;10.73;6.75;;;;;;;;;;5101998;28;20048;-85
2021/08/21 05:23:37;;;;;;;13.40;7.35;;;;;;;;;;5106620;28;20036;-84
2021/08/21 05:26:04;;;;;;;9.80;6.95;;;;;;;;;;5115857;28;20062;-85
2021/08/21 05:28:31;;;;;;;13.90;7.10;;;;;;;;;;5110634;28;20044;-85
2021/08/21 05:30:58;;;;;;;11.55;6.88;;;;;;;;;;5137821;27;20059;-85
2021/08/21 05:33:25;;;;;;;11.40;7.63;;;;;;;;;;5115436;28;20078;-85
2021/08/21 05:35:51;;;;;;;11.88;6.82;;;;;;;;;;5114365;28;20040;-85
2021/08/21 05:38:18;;;;;;;11.13;6.95;;;;;;;;;;5148507;27;20048;-85
2021/08/21 05:40:44;;;;;;;10.68;7.53;;;;;;;;;;5113395;28;20035;-85
2021/08/21 05:43:11;;;;;;;17.30;8.15;;;;;;;;;;5136003;27;20125;-85
2021/08/21 05:45:38;;;;;;;15.45;8.40;;;;;;;;;;5100051;28;20055;-85
2021/08/21 05:48:05;;;;;;;13.40;7.10;;;;;;;;;;5099635;28;20362;-85
2021/08/21 05:50:32;;;;;;;16.50;8.38;;;;;;;;;;5098666;28;20058;-85
2021/08/21 05:52:59;;;;;;;17.42;7.97;;;;;;;;;;5097301;28;20474;-85
2021/08/21 05:55:26;;;;;;;12.32;8.02;;;;;;;;;;5101413;28;20442;-85
2021/08/21 05:57:52;;;;;;;13.02;7.75;;;;;;;;;;5101143;28;20039;-85
2021/08/21 06:00:20;;;;;;;14.40;8.20;;;;;;;;;;5101380;28;20067;-85
2021/08/21 06:02:47;;;;;;;13.85;8.70;;;;;;;;;;5098626;28;20138;-85
2021/08/21 06:05:13;;;;;;;14.27;8.25;;;;;;;;;;5099367;28;20083;-86
2021/08/21 06:07:40;;;;;;;12.68;8.35;;;;;;;;;;5100422;28;20487;-85
2021/08/21 06:10:07;;;;;;;12.43;8.43;;;;;;;;;;5112833;28;20063;-86
2021/08/21 06:12:34;;;;;;;11.32;8.13;;;;;;;;;;5112764;28;20040;-84
2021/08/21 06:15:01;;;;;;;16.85;9.55;;;;;;;;;;5101995;28;20047;-84
2021/08/21 06:17:28;;;;;;;13.05;8.52;;;;;;;;;;5099671;28;20064;-85
2021/08/21 06:19:58;;;;;;;12.00;8.15;;;;;;;;;;5097783;28;20141;-85
2021/08/21 06:22:25;;;;;;;13.60;8.30;;;;;;;;;;5097094;28;20051;-85
2021/08/21 06:24:52;;;;;;;14.45;8.70;;;;;;;;;;5098553;28;20043;-85
2021/08/21 06:27:19;;;;;;;13.70;7.95;;;;;;;;;;5100030;28;20047;-84
2021/08/21 06:29:45;;;;;;;12.10;7.93;;;;;;;;;;5097504;28;20052;-85
2021/08/21 06:32:12;;;;;;;10.52;7.57;;;;;;;;;;5097448;28;20051;-85
2021/08/21 06:34:45;;;;;;;13.95;7.65;;;;;;;;;;5097796;28;20115;-84
2021/08/21 06:37:11;;;;;;;10.25;6.78;;;;;;;;;;5099557;28;20055;-85
2021/08/21 06:39:38;;;;;;;11.98;7.10;;;;;;;;;;5100882;28;20047;-86
2021/08/21 06:42:11;;;;;;;10.57;6.78;;;;;;;;;;5100555;28;20039;-86
2021/08/21 06:44:37;;;;;;;14.27;6.68;;;;;;;;;;5102742;28;20044;-86
2021/08/21 06:47:04;;;;;;;16.98;5.97;;;;;;;;;;5102531;28;20073;-85
2021/08/21 06:49:30;;;;;;;9.07;6.25;;;;;;;;;;5102342;28;20048;-86
2021/08/21 06:51:57;;;;;;;10.98;5.15;;;;;;;;;;5104504;28;20048;-85
2021/08/21 06:54:26;;;;;;;7.53;5.55;;;;;;;;;;5096189;28;20112;-86
2021/08/21 06:56:53;;;;;;;8.10;5.70;;;;;;;;;;5096071;28;20412;-86
2021/08/21 06:59:20;;;;;;;9.43;5.32;;;;;;;;;;5095617;28;20044;-85
2021/08/21 07:01:46;;;;;;;12.35;6.00;;;;;;;;;;5096433;28;20048;-86
2021/08/21 07:04:17;;;;;;;11.70;5.60;;;;;;;;;;5100228;28;20065;-86
2021/08/21 07:06:44;;;;;;;8.85;6.18;;;;;;;;;;5109682;28;20042;-84
2021/08/21 07:09:10;;;;;;;8.98;5.85;;;;;;;;;;5109842;28;20103;-84
2021/08/21 07:11:37;;;;;;;8.32;5.72;;;;;;;;;;5097405;28;20043;-84
2021/08/21 07:14:03;;;;;;;10.93;5.50;;;;;;;;;;5094396;28;20424;-84
2021/08/21 07:16:30;;;;;;;8.25;5.45;;;;;;;;;;5096640;28;20419;-85
2021/08/21 07:18:57;;;;;;;7.88;5.60;;;;;;;;;;5093702;28;20048;-85
2021/08/21 07:21:24;;;;;;;8.85;5.57;;;;;;;;;;5131646;27;20051;-85
2021/08/21 07:23:51;;;;;;;9.75;5.15;;;;;;;;;;5094370;28;20055;-85
2021/08/21 07:26:20;;;;;;;8.20;4.82;;;;;;;;;;5093109;28;20047;-85
2021/08/21 07:28:49;;;;;;;9.60;5.78;;;;;;;;;;5093958;28;20151;-85
2021/08/21 07:31:16;;;;;;;12.18;5.28;;;;;;;;;;5092236;28;20044;-86
2021/08/21 07:33:52;;;;;;;7.43;4.80;;;;;;;;;;5092422;28;20044;-86
2021/08/21 07:36:22;;;;;;;7.38;4.85;;;;;;;;;;5093171;28;20102;-85
2021/08/21 07:38:48;;;;;;;7.68;5.22;;;;;;;;;;5093210;28;20116;-85
2021/08/21 07:41:15;;;;;;;8.25;4.93;;;;;;;;;;5092417;28;20075;-86
2021/08/21 07:43:42;;;;;;;6.10;4.57;;;;;;;;;;5095618;28;20056;-85
2021/08/21 07:46:08;;;;;;;6.15;4.40;;;;;;;;;;5107455;28;20048;-85
2021/08/21 07:48:35;;;;;;;6.45;4.13;;;;;;;;;;5111146;28;20057;-85
2021/08/21 07:51:01;;;;;;;9.10;5.40;;;;;;;;;;5097932;28;20048;-85
2021/08/21 07:53:28;;;;;;;9.85;6.00;;;;;;;;;;5125991;27;20442;-85
2021/08/21 07:55:55;;;;;;;10.48;5.97;;;;;;;;;;5126304;28;20044;-85
2021/08/21 07:58:21;;;;;;;7.35;5.30;;;;;;;;;;5091968;28;20113;-85
2021/08/21 08:00:48;;;;;;;10.40;5.68;;;;;;;;;;5094029;28;20115;-85
2021/08/21 08:03:18;;;;;;;9.63;5.32;;;;;;;;;;5093729;28;20084;-85
2021/08/21 08:05:45;;;;;;;9.93;5.70;;;;;;;;;;5094232;28;20082;-86
2021/08/21 08:08:12;;;;;;;8.38;5.32;;;;;;;;;;5093000;28;20059;-86
2021/08/21 08:10:38;;;;;;;12.65;6.45;;;;;;;;;;5092360;28;20079;-86
2021/08/21 08:13:05;;;;;;;8.30;5.95;;;;;;;;;;5093099;28;20109;-85
2021/08/21 08:15:32;;;;;;;12.13;6.63;;;;;;;;;;5094722;28;20394;-86
2021/08/21 08:17:59;;;;;;;13.50;8.00;;;;;;;;;;5097669;28;20048;-87
2021/08/21 08:20:26;;;;;;;18.25;9.02;;;;;;;;;;5105390;28;20059;-85
2021/08/21 08:22:54;;;;;;;13.57;7.65;;;;;;;;;;5107745;28;20044;-85
2021/08/21 08:25:20;;;;;;;12.00;7.43;;;;;;;;;;5105861;28;20239;-85
2021/08/21 08:27:47;;;;;;;9.65;7.03;;;;;;;;;;5093985;28;20071;-85
2021/08/21 08:30:15;;;;;;;15.30;6.47;;;;;;;;;;5098446;28;20059;-85
2021/08/21 08:32:42;;;;;;;13.45;7.13;;;;;;;;;;5109609;28;20052;-86
2021/08/21 08:35:09;;;;;;;12.32;8.27;;;;;;;;;;5102399;28;20435;-86
2021/08/21 08:37:51;;;;;;;11.52;7.68;;;;;;;;;;5097987;28;20063;-86
2021/08/21 08:40:25;;;;;;;13.98;9.15;;;;;;;;;;5137969;27;20062;-85
2021/08/21 08:42:51;;;;;;;13.35;8.65;;;;;;;;;;5111673;28;20036;-84
2021/08/21 08:45:18;;;;;;;14.00;9.02;;;;;;;;;;5112475;28;20052;-84
2021/08/21 08:47:51;;;;;;;14.50;9.10;;;;;;;;;;5101053;28;20101;-85
2021/08/21 08:50:18;;;;;;;13.90;9.80;;;;;;;;;;5099541;28;20115;-84
2021/08/21 08:52:44;;;;;;;15.88;9.88;;;;;;;;;;5095584;28;20117;-85
2021/08/21 08:55:11;;;;;;;12.02;9.00;;;;;;;;;;5096201;28;20044;-85
2021/08/21 08:57:39;;;;;;;14.20;8.82;;;;;;;;;;5129507;27;20372;-86
2021/08/21 09:00:09;;;;;;;13.32;9.32;;;;;;;;;;5095969;28;20071;-86
2021/08/21 09:02:39;;;;;;;13.70;9.20;;;;;;;;;;5095004;28;20293;-86
2021/08/21 09:05:07;;;;;;;16.75;9.10;;;;;;;;;;5092265;28;20048;-86
2021/08/21 09:07:44;;;;;;;13.63;9.07;;;;;;;;;;5092761;28;20153;-86
2021/08/21 09:10:25;;;;;;;15.15;10.27;;;;;;;;;;5094400;28;20106;-86
2021/08/21 09:13:03;;;;;;;14.27;9.40;;;;;;;;;;5093413;28;20048;-86
2021/08/21 09:15:30;;;;;;;16.27;9.80;;;;;;;;;;5094012;28;20044;-86
2021/08/21 09:17:58;;;;;;;14.07;8.98;;;;;;;;;;5092623;28;20485;-86
2021/08/21 09:20:25;;;;;;;14.77;10.15;;;;;;;;;;5093715;28;20284;-86
2021/08/21 09:23:10;;;;;;;13.75;9.77;;;;;;;;;;5093168;28;20056;-87
2021/08/21 09:25:36;;;;;;;14.98;10.63;;;;;;;;;;5096114;28;20052;-87
2021/08/21 09:28:13;;;;;;;16.00;11.18;;;;;;;;;;5093448;28;20083;-86
2021/08/21 09:30:40;;;;;;;14.43;10.85;;;;;;;;;;5110311;28;20071;-87
2021/08/21 09:33:07;;;;;;;16.00;10.73;;;;;;;;;;5109605;28;20101;-87
2021/08/21 09:35:33;;;;;;;18.83;11.32;;;;;;;;;;5094354;28;20284;-87
2021/08/21 09:38:00;;;;;;;17.63;9.75;;;;;;;;;;5097111;28;20048;-85
2021/08/21 09:40:28;;;;;;;18.35;11.38;;;;;;;;;;5127364;27;20102;-86
2021/08/21 09:43:02;;;;;;;14.88;10.55;;;;;;;;;;5092576;28;20048;-86
2021/08/21 09:45:29;;;;;;;18.92;10.60;;;;;;;;;;5090878;28;20087;-86
2021/08/21 09:48:05;;;;;;;13.90;10.82;;;;;;;;;;5092428;28;20059;-86
2021/08/21 09:50:36;;;;;;;16.20;11.43;;;;;;;;;;5093362;28;20072;-86
2021/08/21 09:53:10;;;;;;;14.85;10.05;;;;;;;;;;5092560;28;20044;-86
2021/08/21 09:55:37;;;;;;;14.70;10.85;;;;;;;;;;5092240;28;20048;-86
2021/08/21 09:58:05;;;;;;;18.08;11.25;;;;;;;;;;5092407;28;20093;-86
2021/08/21 10:00:33;;;;;;;16.67;12.07;;;;;;;;;;5091896;28;20056;-86
2021/08/21 10:03:04;;;;;;;17.83;12.02;;;;;;;;;;5092378;28;20118;-86
2021/08/21 10:05:31;;;;;;;19.70;12.13;;;;;;;;;;5091373;28;20227;-86
2021/08/21 10:08:10;;;;;;;18.20;11.25;;;;;;;;;;5093882;28;20407;-86
2021/08/21 10:10:49;;;;;;;19.60;12.05;;;;;;;;;;5105612;28;20066;-86
2021/08/21 10:13:25;;;;;;;15.85;11.15;;;;;;;;;;5108174;28;20086;-87
2021/08/21 10:15:52;;;;;;;18.48;12.00;;;;;;;;;;5100109;28;20078;-87
2021/08/21 10:18:21;;;;;;;17.17;12.25;;;;;;;;;;5089933;28;20236;-86
2021/08/21 10:20:47;;;;;;;17.88;12.00;;;;;;;;;;5091273;28;20101;-86
2021/08/21 10:23:15;;;;;;;14.93;10.98;;;;;;;;;;5089395;28;20393;-86
2021/08/21 10:25:46;;;;;;;18.25;12.10;;;;;;;;;;5089338;28;20044;-87
2021/08/21 10:28:14;;;;;;;15.65;10.43;;;;;;;;;;5089452;28;20048;-86
2021/08/21 10:30:41;;;;;;;15.40;11.55;;;;;;;;;;5089179;28;20087;-86
2021/08/21 10:33:08;;;;;;;19.40;10.80;;;;;;;;;;5090591;28;20048;-86
2021/08/21 10:35:54;;;;;;;15.43;10.77;;;;;;;;;;5091508;28;20490;-85
2021/08/21 10:38:40;;;;;;;18.15;11.18;;;;;;;;;;5090924;28;20105;-85
2021/08/21 10:41:09;;;;;;;14.45;10.82;;;;;;;;;;5091046;28;20052;-85
2021/08/21 10:43:43;;;;;;;19.73;11.95;;;;;;;;;;5091879;28;20074;-85
2021/08/21 10:46:10;;;;;;;13.95;10.45;;;;;;;;;;5089052;28;20255;-85
2021/08/21 10:48:37;;;;;;;14.07;11.45;;;;;;;;;;5095673;28;20177;-85
2021/08/21 10:51:27;;;;;;;14.50;10.32;;;;;;;;;;5101558;28;20036;-85
2021/08/21 10:53:53;;;;;;;15.82;11.25;;;;;;;;;;5103106;28;20063;-86
2021/08/21 10:56:38;;;;;;;13.98;10.05;;;;;;;;;;5107373;28;20197;-86
2021/08/21 10:59:05;;;;;;;16.85;9.27;;;;;;;;;;5110312;28;20135;-85
2021/08/21 11:01:31;;;;;;;15.18;10.68;;;;;;;;;;5109983;28;20064;-85
2021/08/21 11:03:58;;;;;;;16.55;10.27;;;;;;;;;;5109999;28;20035;-85
2021/08/21 11:06:32;;;;;;;14.13;10.00;;;;;;;;;;5107549;28;20066;-85
2021/08/21 11:09:00;;;;;;;13.43;10.73;;;;;;;;;;5103917;28;20060;-85
2021/08/21 11:11:34;;;;;;;13.63;10.23;;;;;;;;;;5093530;28;20048;-85
2021/08/21 11:14:06;;;;;;;13.30;9.48;;;;;;;;;;5093268;28;20079;-85
2021/08/21 11:16:54;;;;;;;14.07;11.05;;;;;;;;;;5093635;28;20586;-85
2021/08/21 11:19:39;;;;;;;13.65;10.20;;;;;;;;;;5093009;28;20089;-85
2021/08/21 11:22:09;;;;;;;14.85;10.63;;;;;;;;;;5090412;28;20336;-84
2021/08/21 11:24:36;;;;;;;15.20;11.75;;;;;;;;;;5088888;28;20048;-85
2021/08/21 11:27:22;;;;;;;16.35;11.00;;;;;;;;;;5089466;28;20054;-85
2021/08/21 11:30:10;;;;;;;14.60;11.32;;;;;;;;;;5089755;28;20330;-85
2021/08/21 11:32:40;;;;;;;17.67;12.50;;;;;;;;;;5091607;28;20101;-85
2021/08/21 11:35:07;;;;;;;18.23;11.80;;;;;;;;;;5106516;28;20035;-86
2021/08/21 11:37:44;;;;;;;17.17;12.48;;;;;;;;;;5109039;28;20078;-84
2021/08/21 11:40:15;;;;;;;20.92;12.82;;;;;;;;;;5106618;28;20040;-85
2021/08/21 11:42:49;;;;;;;16.10;10.32;;;;;;;;;;5110977;28;20044;-86
2021/08/21 11:45:16;;;;;;;16.13;9.73;;;;;;;;;;5109319;28;20065;-86
2021/08/21 11:47:43;;;;;;;15.77;10.57;;;;;;;;;;5106660;28;20048;-86
2021/08/21 11:50:28;;;;;;;19.05;11.82;;;;;;;;;;5097137;28;20310;-87
2021/08/21 11:52:55;;;;;;;13.65;10.50;;;;;;;;;;5092579;28;20072;-86
2021/08/21 11:55:22;;;;;;;11.50;9.48;;;;;;;;;;5092932;28;20048;-86
2021/08/21 11:57:50;;;;;;;15.00;11.05;;;;;;;;;;5091931;28;20044;-86
2021/08/21 12:00:19;;;;;;;15.30;11.05;;;;;;;;;;5092102;28;20238;-85
2021/08/21 12:02:47;;;;;;;14.23;10.65;;;;;;;;;;5092548;28;20082;-86
2021/08/21 12:05:14;;;;;;;15.30;11.07;;;;;;;;;;5092637;28;20343;-86
2021/08/21 12:07:40;;;;;;;13.82;10.15;;;;;;;;;;5095337;28;20185;-85
2021/08/21 12:10:07;;;;;;;12.80;10.60;;;;;;;;;;5106508;28;20040;-86
2021/08/21 12:12:34;;;;;;;16.15;10.48;;;;;;;;;;5108987;28;20243;-86
2021/08/21 12:15:05;;;;;;;13.88;11.25;;;;;;;;;;5092858;28;20423;-85
2021/08/21 12:17:33;;;;;;;16.15;10.65;;;;;;;;;;5092164;28;20048;-85
2021/08/21 12:20:01;;;;;;;14.77;10.20;;;;;;;;;;5096826;28;20135;-85
2021/08/21 12:22:28;;;;;;;14.98;9.45;;;;;;;;;;5096744;28;20364;-85
2021/08/21 12:24:56;;;;;;;12.30;9.90;;;;;;;;;;5096132;28;20084;-85
2021/08/21 12:27:23;;;;;;;13.15;10.15;;;;;;;;;;5092552;28;20240;-85
2021/08/21 12:30:04;;;;;;;12.80;10.05;;;;;;;;;;5094410;28;20090;-85
2021/08/21 12:32:30;;;;;;;14.40;9.18;;;;;;;;;;5093744;28;20121;-85
2021/08/21 12:35:14;;;;;;;11.77;8.63;;;;;;;;;;5094960;28;20048;-86
2021/08/21 12:37:41;;;;;;;13.10;7.43;;;;;;;;;;5095889;28;20443;-85
2021/08/21 12:40:12;;;;;;;11.90;7.18;;;;;;;;;;5094279;28;20111;-86
2021/08/21 12:42:48;;;;;;;11.25;6.85;;;;;;;;;;5094048;28;20533;-86
2021/08/21 12:45:17;;;;;;;11.13;8.70;;;;;;;;;;5094312;28;20393;-85
2021/08/21 12:47:44;;;;;;;10.93;7.65;;;;;;;;;;5094984;28;20211;-85
2021/08/21 12:50:11;;;;;;;13.20;8.15;;;;;;;;;;5094637;28;20466;-85
2021/08/21 12:52:37;;;;;;;14.13;9.63;;;;;;;;;;5094942;28;20044;-85
2021/08/21 12:55:05;;;;;;;10.80;8.50;;;;;;;;;;5094829;28;20101;-85
2021/08/21 12:57:34;;;;;;;10.07;6.85;;;;;;;;;;5092566;28;20205;-85
2021/08/21 13:00:07;;;;;;;13.48;7.78;;;;;;;;;;5091465;28;20062;-85
2021/08/21 13:02:42;;;;;;;9.15;7.03;;;;;;;;;;5092518;28;20048;-85
2021/08/21 13:05:16;;;;;;;7.85;7.03;;;;;;;;;;5094862;28;20134;-85
2021/08/21 13:07:46;;;;;;;7.78;6.22;;;;;;;;;;5096431;28;20056;-85
2021/08/21 13:10:18;;;;;;;9.48;7.13;;;;;;;;;;5108651;28;20079;-86
2021/08/21 13:12:45;;;;;;;8.50;5.70;;;;;;;;;;5114730;28;20035;-86
2021/08/21 13:15:13;;;;;;;8.25;6.28;;;;;;;;;;5115907;28;20036;-87
2021/08/21 13:17:39;;;;;;;11.43;6.00;;;;;;;;;;5097288;28;20047;-84
2021/08/21 13:20:07;;;;;;;7.22;4.78;;;;;;;;;;5093368;28;20044;-85
2021/08/21 13:22:33;;;;;;;8.60;6.30;;;;;;;;;;5092444;28;20048;-85
2021/08/21 13:25:00;;;;;;;6.25;4.75;;;;;;;;;;5091896;28;20332;-85
2021/08/21 13:27:27;;;;;;;7.72;5.80;;;;;;;;;;5093930;28;20109;-86
2021/08/21 13:29:54;;;;;;;8.02;5.00;;;;;;;;;;5094373;28;20052;-85
2021/08/21 13:32:21;;;;;;;7.13;4.57;;;;;;;;;;5096655;28;20423;-85
2021/08/21 13:34:48;;;;;;;7.18;4.18;;;;;;;;;;5092341;28;20048;-86
2021/08/21 13:37:15;;;;;;;8.98;6.55;;;;;;;;;;5091959;28;20056;-86
2021/08/21 13:39:42;;;;;;;9.50;5.18;;;;;;;;;;5092504;28;20079;-84
2021/08/21 13:42:09;;;;;;;7.25;5.80;;;;;;;;;;5092081;28;20094;-86
2021/08/21 13:44:41;;;;;;;7.57;5.63;;;;;;;;;;5093416;28;20044;-87
2021/08/21 13:47:08;;;;;;;9.07;5.90;;;;;;;;;;5093182;28;20070;-86
2021/08/21 13:49:35;;;;;;;7.75;5.55;;;;;;;;;;5140121;27;20048;-86
2021/08/21 13:52:02;;;;;;;8.65;5.80;;;;;;;;;;5109028;28;20048;-86
2021/08/21 13:54:29;;;;;;;7.25;6.20;;;;;;;;;;5093849;28;20056;-86
2021/08/21 13:56:56;;;;;;;8.25;5.70;;;;;;;;;;5126303;27;20480;-86
2021/08/21 13:59:23;;;;;;;6.78;4.57;;;;;;;;;;5091437;28;20257;-86
2021/08/21 14:01:49;;;;;;;7.65;5.80;;;;;;;;;;5089864;28;20051;-86
2021/08/21 14:04:19;;;;;;;8.60;5.60;;;;;;;;;;5088790;28;20297;-87
2021/08/21 14:06:45;;;;;;;9.00;6.65;;;;;;;;;;5090793;28;20113;-85
2021/08/21 14:09:40;;;;;;;8.23;6.35;;;;;;;;;;5091135;28;20300;-86
2021/08/21 14:12:08;;;;;;;7.97;6.22;;;;;;;;;;5095416;28;20164;-85
2021/08/21 14:14:34;;;;;;;10.38;5.85;;;;;;;;;;5102217;28;20052;-85
2021/08/21 14:17:01;;;;;;;9.73;5.85;;;;;;;;;;5108838;28;20044;-85
2021/08/21 14:19:28;;;;;;;10.68;5.68;;;;;;;;;;5136675;27;20105;-85
2021/08/21 14:21:54;;;;;;;7.18;5.50;;;;;;;;;;5092080;28;20044;-85
2021/08/21 14:24:21;;;;;;;6.25;4.30;;;;;;;;;;5123504;27;20056;-85
2021/08/21 14:26:47;;;;;;;7.07;5.32;;;;;;;;;;5091867;28;20040;-86
2021/08/21 14:29:14;;;;;;;9.15;4.97;;;;;;;;;;5123383;27;20374;-85
2021/08/21 14:31:40;;;;;;;7.93;5.07;;;;;;;;;;5090256;28;20044;-85
2021/08/21 14:34:07;;;;;;;7.88;5.07;;;;;;;;;;5096350;28;20139;-86
2021/08/21 14:36:34;;;;;;;6.15;4.68;;;;;;;;;;5111594;28;20070;-86